sensor_id;sensor_type;location;lat;lon;timestamp;P1;durP1;ratioP1;P2;durP2;ratioP2
6997;SDS011;3539;47.982;12.238;2023-03-23T00:00:29;5.70;;;4.33;;
6997;SDS011;3539;47.982;12.238;2023-03-23T00:02:56;4.80;;;4.30;;
6997;SDS011;3539;47.982;12.238;2023-03-23T00:05:23;6.47;;;4.50;;
6997;SDS011;3539;47.982;12.238;2023-03-23T00:07:49;4.77;;;4.17;;
6997;SDS011;3539;47.982;12.238;2023-03-23T00:10:17;5.10;;;4.40;;
6997;SDS011;3539;47.982;12.238;2023-03-23T00:12:43;5.23;;;4.63;;
6997;SDS011;3539;47.982;12.238;2023-03-23T00:15:16;6.67;;;4.43;;
6997;SDS011;3539;47.982;12.238;2023-03-23T00:17:42;4.83;;;4.33;;
6997;SDS011;3539;47.982;12.238;2023-03-23T00:20:09;5.23;;;4.30;;
6997;SDS011;3539;47.982;12.238;2023-03-23T00:22:37;5.67;;;4.50;;
6997;SDS011;3539;47.982;12.238;2023-03-23T00:25:06;7.13;;;4.50;;
6997;SDS011;3539;47.982;12.238;2023-03-23T00:27:34;5.10;;;4.33;;
6997;SDS011;3539;47.982;12.238;2023-03-23T00:30:00;6.40;;;4.77;;
6997;SDS011;3539;47.982;12.238;2023-03-23T00:32:29;4.80;;;4.17;;
6997;SDS011;3539;47.982;12.238;2023-03-23T00:34:56;5.03;;;4.40;;
6997;SDS011;3539;47.982;12.238;2023-03-23T00:37:24;5.17;;;4.30;;
6997;SDS011;3539;47.982;12.238;2023-03-23T00:39:51;4.63;;;4.03;;
6997;SDS011;3539;47.982;12.238;2023-03-23T00:42:22;5.90;;;4.47;;
6997;SDS011;3539;47.982;12.238;2023-03-23T00:44:49;5.47;;;4.17;;
6997;SDS011;3539;47.982;12.238;2023-03-23T00:47:18;6.03;;;3.97;;
6997;SDS011;3539;47.982;12.238;2023-03-23T00:49:47;6.13;;;4.40;;
6997;SDS011;3539;47.982;12.238;2023-03-23T00:52:15;7.07;;;5.20;;
6997;SDS011;3539;47.982;12.238;2023-03-23T00:54:41;6.70;;;5.40;;
6997;SDS011;3539;47.982;12.238;2023-03-23T00:57:08;7.03;;;5.30;;
6997;SDS011;3539;47.982;12.238;2023-03-23T00:59:35;6.47;;;4.77;;
6997;SDS011;3539;47.982;12.238;2023-03-23T01:02:02;7.37;;;5.17;;
6997;SDS011;3539;47.982;12.238;2023-03-23T01:04:29;5.43;;;4.70;;
6997;SDS011;3539;47.982;12.238;2023-03-23T01:06:58;5.80;;;4.80;;
6997;SDS011;3539;47.982;12.238;2023-03-23T01:09:26;5.00;;;4.47;;
6997;SDS011;3539;47.982;12.238;2023-03-23T01:11:52;6.27;;;4.50;;
6997;SDS011;3539;47.982;12.238;2023-03-23T01:14:20;5.27;;;4.77;;
6997;SDS011;3539;47.982;12.238;2023-03-23T01:16:47;6.73;;;4.70;;
6997;SDS011;3539;47.982;12.238;2023-03-23T01:19:14;5.80;;;4.93;;
6997;SDS011;3539;47.982;12.238;2023-03-23T01:21:41;4.90;;;4.40;;
6997;SDS011;3539;47.982;12.238;2023-03-23T01:24:09;6.27;;;4.87;;
6997;SDS011;3539;47.982;12.238;2023-03-23T01:26:36;6.47;;;5.37;;
6997;SDS011;3539;47.982;12.238;2023-03-23T01:29:03;7.07;;;5.63;;
6997;SDS011;3539;47.982;12.238;2023-03-23T01:31:30;7.63;;;5.63;;
6997;SDS011;3539;47.982;12.238;2023-03-23T01:33:56;5.53;;;4.87;;
6997;SDS011;3539;47.982;12.238;2023-03-23T01:36:23;6.10;;;4.83;;
6997;SDS011;3539;47.982;12.238;2023-03-23T01:38:53;5.73;;;4.73;;
6997;SDS011;3539;47.982;12.238;2023-03-23T01:41:24;5.73;;;4.87;;
6997;SDS011;3539;47.982;12.238;2023-03-23T01:43:55;7.33;;;5.13;;
6997;SDS011;3539;47.982;12.238;2023-03-23T01:46:24;6.43;;;4.73;;
6997;SDS011;3539;47.982;12.238;2023-03-23T01:48:52;7.17;;;5.13;;
6997;SDS011;3539;47.982;12.238;2023-03-23T01:51:20;5.40;;;4.90;;
6997;SDS011;3539;47.982;12.238;2023-03-23T01:53:48;5.90;;;5.27;;
6997;SDS011;3539;47.982;12.238;2023-03-23T01:56:17;6.07;;;5.10;;
6997;SDS011;3539;47.982;12.238;2023-03-23T01:58:51;6.20;;;5.03;;
6997;SDS011;3539;47.982;12.238;2023-03-23T02:01:20;10.60;;;5.30;;
6997;SDS011;3539;47.982;12.238;2023-03-23T02:03:50;5.80;;;4.93;;
6997;SDS011;3539;47.982;12.238;2023-03-23T02:06:18;5.83;;;5.13;;
6997;SDS011;3539;47.982;12.238;2023-03-23T02:08:45;5.20;;;4.50;;
6997;SDS011;3539;47.982;12.238;2023-03-23T02:11:15;6.27;;;4.70;;
6997;SDS011;3539;47.982;12.238;2023-03-23T02:13:42;6.23;;;5.10;;
6997;SDS011;3539;47.982;12.238;2023-03-23T02:16:12;6.43;;;5.37;;
6997;SDS011;3539;47.982;12.238;2023-03-23T02:18:45;7.73;;;4.67;;
6997;SDS011;3539;47.982;12.238;2023-03-23T02:27:20;4.77;;;4.27;;
6997;SDS011;3539;47.982;12.238;2023-03-23T02:35:41;5.50;;;4.60;;
6997;SDS011;3539;47.982;12.238;2023-03-23T02:38:13;5.27;;;4.37;;
6997;SDS011;3539;47.982;12.238;2023-03-23T02:40:42;5.90;;;4.67;;
6997;SDS011;3539;47.982;12.238;2023-03-23T02:43:11;5.27;;;4.53;;
6997;SDS011;3539;47.982;12.238;2023-03-23T02:45:40;6.67;;;4.03;;
6997;SDS011;3539;47.982;12.238;2023-03-23T02:48:07;4.83;;;3.97;;
6997;SDS011;3539;47.982;12.238;2023-03-23T02:50:36;5.37;;;4.40;;
6997;SDS011;3539;47.982;12.238;2023-03-23T02:53:05;4.93;;;4.37;;
6997;SDS011;3539;47.982;12.238;2023-03-23T02:55:34;6.67;;;4.60;;
6997;SDS011;3539;47.982;12.238;2023-03-23T02:58:07;7.27;;;4.83;;
6997;SDS011;3539;47.982;12.238;2023-03-23T03:00:34;6.17;;;4.93;;
6997;SDS011;3539;47.982;12.238;2023-03-23T03:03:00;5.10;;;4.60;;
6997;SDS011;3539;47.982;12.238;2023-03-23T03:05:30;6.17;;;4.30;;
6997;SDS011;3539;47.982;12.238;2023-03-23T03:08:07;5.47;;;4.50;;
6997;SDS011;3539;47.982;12.238;2023-03-23T03:10:42;6.23;;;4.33;;
6997;SDS011;3539;47.982;12.238;2023-03-23T03:13:14;5.30;;;4.80;;
6997;SDS011;3539;47.982;12.238;2023-03-23T03:15:48;5.03;;;4.40;;
6997;SDS011;3539;47.982;12.238;2023-03-23T03:18:20;5.87;;;4.60;;
6997;SDS011;3539;47.982;12.238;2023-03-23T03:20:49;5.23;;;4.30;;
6997;SDS011;3539;47.982;12.238;2023-03-23T03:23:19;5.63;;;4.40;;
6997;SDS011;3539;47.982;12.238;2023-03-23T03:25:48;5.93;;;4.90;;
6997;SDS011;3539;47.982;12.238;2023-03-23T03:28:16;6.07;;;4.73;;
6997;SDS011;3539;47.982;12.238;2023-03-23T03:30:46;6.97;;;4.60;;
6997;SDS011;3539;47.982;12.238;2023-03-23T03:33:14;5.97;;;5.17;;
6997;SDS011;3539;47.982;12.238;2023-03-23T03:35:42;5.03;;;4.40;;
6997;SDS011;3539;47.982;12.238;2023-03-23T03:38:10;6.23;;;5.00;;
6997;SDS011;3539;47.982;12.238;2023-03-23T03:40:39;6.07;;;4.63;;
6997;SDS011;3539;47.982;12.238;2023-03-23T03:43:06;5.50;;;4.50;;
6997;SDS011;3539;47.982;12.238;2023-03-23T03:45:33;6.13;;;4.80;;
6997;SDS011;3539;47.982;12.238;2023-03-23T03:47:59;5.33;;;4.83;;
6997;SDS011;3539;47.982;12.238;2023-03-23T03:50:26;5.27;;;4.77;;
6997;SDS011;3539;47.982;12.238;2023-03-23T03:52:53;5.87;;;4.83;;
6997;SDS011;3539;47.982;12.238;2023-03-23T03:55:20;6.63;;;5.03;;
6997;SDS011;3539;47.982;12.238;2023-03-23T03:57:48;6.40;;;5.17;;
6997;SDS011;3539;47.982;12.238;2023-03-23T04:00:15;6.27;;;5.67;;
6997;SDS011;3539;47.982;12.238;2023-03-23T04:02:44;7.17;;;5.00;;
6997;SDS011;3539;47.982;12.238;2023-03-23T04:05:12;6.10;;;5.17;;
6997;SDS011;3539;47.982;12.238;2023-03-23T04:07:39;4.83;;;4.30;;
6997;SDS011;3539;47.982;12.238;2023-03-23T04:10:07;6.53;;;5.33;;
6997;SDS011;3539;47.982;12.238;2023-03-23T04:12:36;8.07;;;4.47;;
6997;SDS011;3539;47.982;12.238;2023-03-23T04:15:04;5.20;;;4.47;;
6997;SDS011;3539;47.982;12.238;2023-03-23T04:17:32;5.20;;;4.60;;
6997;SDS011;3539;47.982;12.238;2023-03-23T04:19:59;6.57;;;4.70;;
6997;SDS011;3539;47.982;12.238;2023-03-23T04:22:36;5.17;;;4.23;;
6997;SDS011;3539;47.982;12.238;2023-03-23T04:25:03;5.20;;;4.70;;
6997;SDS011;3539;47.982;12.238;2023-03-23T04:27:31;6.50;;;4.90;;
6997;SDS011;3539;47.982;12.238;2023-03-23T04:29:58;5.13;;;4.40;;
6997;SDS011;3539;47.982;12.238;2023-03-23T04:32:26;5.63;;;4.63;;
6997;SDS011;3539;47.982;12.238;2023-03-23T04:34:53;5.47;;;4.67;;
6997;SDS011;3539;47.982;12.238;2023-03-23T04:37:20;5.80;;;5.20;;
6997;SDS011;3539;47.982;12.238;2023-03-23T04:39:51;5.17;;;4.67;;
6997;SDS011;3539;47.982;12.238;2023-03-23T04:42:25;6.77;;;5.10;;
6997;SDS011;3539;47.982;12.238;2023-03-23T04:44:53;6.50;;;4.90;;
6997;SDS011;3539;47.982;12.238;2023-03-23T04:47:20;4.67;;;4.13;;
6997;SDS011;3539;47.982;12.238;2023-03-23T04:49:48;6.57;;;4.77;;
6997;SDS011;3539;47.982;12.238;2023-03-23T04:52:15;6.50;;;4.40;;
6997;SDS011;3539;47.982;12.238;2023-03-23T04:54:42;6.17;;;4.27;;
6997;SDS011;3539;47.982;12.238;2023-03-23T04:57:09;6.93;;;5.40;;
6997;SDS011;3539;47.982;12.238;2023-03-23T04:59:37;9.20;;;7.23;;
6997;SDS011;3539;47.982;12.238;2023-03-23T05:02:04;11.27;;;7.70;;
6997;SDS011;3539;47.982;12.238;2023-03-23T05:04:31;8.77;;;7.10;;
6997;SDS011;3539;47.982;12.238;2023-03-23T05:07:00;9.70;;;8.17;;
6997;SDS011;3539;47.982;12.238;2023-03-23T05:09:26;9.63;;;7.63;;
6997;SDS011;3539;47.982;12.238;2023-03-23T05:11:53;9.07;;;6.87;;
6997;SDS011;3539;47.982;12.238;2023-03-23T05:14:20;7.10;;;5.23;;
6997;SDS011;3539;47.982;12.238;2023-03-23T05:16:46;4.90;;;4.40;;
6997;SDS011;3539;47.982;12.238;2023-03-23T05:19:13;5.07;;;4.57;;
6997;SDS011;3539;47.982;12.238;2023-03-23T05:21:40;4.43;;;4.03;;
6997;SDS011;3539;47.982;12.238;2023-03-23T05:24:10;5.80;;;4.60;;
6997;SDS011;3539;47.982;12.238;2023-03-23T05:26:37;5.77;;;4.13;;
6997;SDS011;3539;47.982;12.238;2023-03-23T05:29:04;4.60;;;4.17;;
6997;SDS011;3539;47.982;12.238;2023-03-23T05:31:31;5.27;;;4.30;;
6997;SDS011;3539;47.982;12.238;2023-03-23T05:33:58;5.20;;;4.10;;
6997;SDS011;3539;47.982;12.238;2023-03-23T05:36:24;6.80;;;4.37;;
6997;SDS011;3539;47.982;12.238;2023-03-23T05:38:51;4.73;;;4.17;;
6997;SDS011;3539;47.982;12.238;2023-03-23T05:41:19;4.50;;;4.00;;
6997;SDS011;3539;47.982;12.238;2023-03-23T05:43:46;5.00;;;4.37;;
6997;SDS011;3539;47.982;12.238;2023-03-23T05:46:13;5.63;;;4.60;;
6997;SDS011;3539;47.982;12.238;2023-03-23T05:48:41;4.97;;;4.47;;
6997;SDS011;3539;47.982;12.238;2023-03-23T05:51:08;4.97;;;4.47;;
6997;SDS011;3539;47.982;12.238;2023-03-23T05:53:35;7.87;;;5.00;;
6997;SDS011;3539;47.982;12.238;2023-03-23T05:56:02;6.93;;;5.10;;
6997;SDS011;3539;47.982;12.238;2023-03-23T05:58:31;8.80;;;5.50;;
6997;SDS011;3539;47.982;12.238;2023-03-23T06:00:57;5.67;;;4.97;;
6997;SDS011;3539;47.982;12.238;2023-03-23T06:03:24;12.07;;;8.07;;
6997;SDS011;3539;47.982;12.238;2023-03-23T06:05:51;11.37;;;7.57;;
6997;SDS011;3539;47.982;12.238;2023-03-23T06:08:18;6.33;;;5.00;;
6997;SDS011;3539;47.982;12.238;2023-03-23T06:10:45;5.17;;;4.50;;
6997;SDS011;3539;47.982;12.238;2023-03-23T06:13:11;6.07;;;4.33;;
6997;SDS011;3539;47.982;12.238;2023-03-23T06:15:39;5.13;;;4.63;;
6997;SDS011;3539;47.982;12.238;2023-03-23T06:18:06;5.90;;;4.80;;
6997;SDS011;3539;47.982;12.238;2023-03-23T06:20:33;6.13;;;4.67;;
6997;SDS011;3539;47.982;12.238;2023-03-23T06:23:01;7.17;;;4.80;;
6997;SDS011;3539;47.982;12.238;2023-03-23T06:25:29;6.50;;;5.13;;
6997;SDS011;3539;47.982;12.238;2023-03-23T06:27:56;4.57;;;3.80;;
6997;SDS011;3539;47.982;12.238;2023-03-23T06:30:23;5.60;;;4.60;;
6997;SDS011;3539;47.982;12.238;2023-03-23T06:32:52;6.03;;;4.03;;
6997;SDS011;3539;47.982;12.238;2023-03-23T06:35:19;7.07;;;4.47;;
6997;SDS011;3539;47.982;12.238;2023-03-23T06:37:46;5.10;;;4.40;;
6997;SDS011;3539;47.982;12.238;2023-03-23T06:40:13;5.00;;;4.23;;
6997;SDS011;3539;47.982;12.238;2023-03-23T06:42:40;5.00;;;4.50;;
6997;SDS011;3539;47.982;12.238;2023-03-23T06:45:07;7.40;;;5.13;;
6997;SDS011;3539;47.982;12.238;2023-03-23T06:47:35;5.33;;;4.83;;
6997;SDS011;3539;47.982;12.238;2023-03-23T06:50:03;5.77;;;4.97;;
6997;SDS011;3539;47.982;12.238;2023-03-23T06:52:30;5.60;;;4.60;;
6997;SDS011;3539;47.982;12.238;2023-03-23T06:54:57;5.60;;;4.93;;
6997;SDS011;3539;47.982;12.238;2023-03-23T06:57:24;8.07;;;5.00;;
6997;SDS011;3539;47.982;12.238;2023-03-23T06:59:51;9.17;;;4.97;;
6997;SDS011;3539;47.982;12.238;2023-03-23T07:02:18;8.97;;;5.40;;
6997;SDS011;3539;47.982;12.238;2023-03-23T07:04:45;6.53;;;5.93;;
6997;SDS011;3539;47.982;12.238;2023-03-23T07:07:13;6.83;;;5.50;;
6997;SDS011;3539;47.982;12.238;2023-03-23T07:09:43;7.23;;;5.43;;
6997;SDS011;3539;47.982;12.238;2023-03-23T07:12:10;10.10;;;6.30;;
6997;SDS011;3539;47.982;12.238;2023-03-23T07:14:38;14.80;;;8.80;;
6997;SDS011;3539;47.982;12.238;2023-03-23T07:17:05;12.47;;;8.43;;
6997;SDS011;3539;47.982;12.238;2023-03-23T07:19:32;6.40;;;5.50;;
6997;SDS011;3539;47.982;12.238;2023-03-23T07:22:01;6.90;;;5.20;;
6997;SDS011;3539;47.982;12.238;2023-03-23T07:24:29;6.30;;;4.43;;
6997;SDS011;3539;47.982;12.238;2023-03-23T07:26:56;6.47;;;4.50;;
6997;SDS011;3539;47.982;12.238;2023-03-23T07:29:22;5.57;;;4.10;;
6997;SDS011;3539;47.982;12.238;2023-03-23T07:31:50;6.33;;;5.07;;
6997;SDS011;3539;47.982;12.238;2023-03-23T07:34:17;5.43;;;4.90;;
6997;SDS011;3539;47.982;12.238;2023-03-23T07:36:44;6.57;;;5.17;;
6997;SDS011;3539;47.982;12.238;2023-03-23T07:39:11;6.97;;;4.93;;
6997;SDS011;3539;47.982;12.238;2023-03-23T07:41:39;6.53;;;4.70;;
6997;SDS011;3539;47.982;12.238;2023-03-23T07:44:06;5.07;;;4.57;;
6997;SDS011;3539;47.982;12.238;2023-03-23T07:46:33;5.70;;;4.70;;
6997;SDS011;3539;47.982;12.238;2023-03-23T07:49:01;6.00;;;4.60;;
6997;SDS011;3539;47.982;12.238;2023-03-23T07:51:30;6.40;;;4.90;;
6997;SDS011;3539;47.982;12.238;2023-03-23T07:53:57;5.03;;;4.40;;
6997;SDS011;3539;47.982;12.238;2023-03-23T07:56:24;8.07;;;4.60;;
6997;SDS011;3539;47.982;12.238;2023-03-23T07:58:52;5.20;;;4.60;;
6997;SDS011;3539;47.982;12.238;2023-03-23T08:01:20;4.57;;;4.17;;
6997;SDS011;3539;47.982;12.238;2023-03-23T08:03:48;6.87;;;4.33;;
6997;SDS011;3539;47.982;12.238;2023-03-23T08:06:15;6.27;;;4.67;;
6997;SDS011;3539;47.982;12.238;2023-03-23T08:08:42;4.10;;;3.70;;
6997;SDS011;3539;47.982;12.238;2023-03-23T08:11:08;6.30;;;4.17;;
6997;SDS011;3539;47.982;12.238;2023-03-23T08:13:36;7.87;;;4.27;;
6997;SDS011;3539;47.982;12.238;2023-03-23T08:16:05;4.43;;;3.77;;
6997;SDS011;3539;47.982;12.238;2023-03-23T08:18:34;5.57;;;3.80;;
6997;SDS011;3539;47.982;12.238;2023-03-23T08:21:01;4.70;;;3.67;;
6997;SDS011;3539;47.982;12.238;2023-03-23T08:23:29;5.47;;;3.70;;
6997;SDS011;3539;47.982;12.238;2023-03-23T08:25:56;4.87;;;4.07;;
6997;SDS011;3539;47.982;12.238;2023-03-23T08:28:23;4.17;;;3.77;;
6997;SDS011;3539;47.982;12.238;2023-03-23T08:30:49;7.00;;;4.13;;
6997;SDS011;3539;47.982;12.238;2023-03-23T08:33:18;4.00;;;3.60;;
6997;SDS011;3539;47.982;12.238;2023-03-23T08:35:53;5.27;;;3.90;;
6997;SDS011;3539;47.982;12.238;2023-03-23T08:38:20;3.87;;;3.43;;
6997;SDS011;3539;47.982;12.238;2023-03-23T08:40:47;5.30;;;3.60;;
6997;SDS011;3539;47.982;12.238;2023-03-23T08:43:15;5.40;;;3.90;;
6997;SDS011;3539;47.982;12.238;2023-03-23T08:45:42;6.60;;;4.40;;
6997;SDS011;3539;47.982;12.238;2023-03-23T08:48:09;5.33;;;4.17;;
6997;SDS011;3539;47.982;12.238;2023-03-23T08:50:37;4.33;;;3.93;;
6997;SDS011;3539;47.982;12.238;2023-03-23T08:53:04;5.73;;;4.27;;
6997;SDS011;3539;47.982;12.238;2023-03-23T08:55:32;6.63;;;4.07;;
6997;SDS011;3539;47.982;12.238;2023-03-23T08:57:59;5.07;;;3.93;;
6997;SDS011;3539;47.982;12.238;2023-03-23T09:00:25;5.80;;;3.93;;
6997;SDS011;3539;47.982;12.238;2023-03-23T09:02:53;5.63;;;4.20;;
6997;SDS011;3539;47.982;12.238;2023-03-23T09:05:22;5.27;;;4.00;;
6997;SDS011;3539;47.982;12.238;2023-03-23T09:07:52;8.93;;;4.47;;
6997;SDS011;3539;47.982;12.238;2023-03-23T09:10:20;5.87;;;4.30;;
6997;SDS011;3539;47.982;12.238;2023-03-23T09:12:49;4.27;;;3.87;;
6997;SDS011;3539;47.982;12.238;2023-03-23T09:15:16;4.63;;;3.80;;
6997;SDS011;3539;47.982;12.238;2023-03-23T09:17:44;4.50;;;3.80;;
6997;SDS011;3539;47.982;12.238;2023-03-23T09:20:12;3.97;;;3.57;;
6997;SDS011;3539;47.982;12.238;2023-03-23T09:22:40;8.10;;;3.93;;
6997;SDS011;3539;47.982;12.238;2023-03-23T09:25:10;4.87;;;3.57;;
6997;SDS011;3539;47.982;12.238;2023-03-23T09:27:38;3.77;;;3.40;;
6997;SDS011;3539;47.982;12.238;2023-03-23T09:30:07;5.83;;;3.90;;
6997;SDS011;3539;47.982;12.238;2023-03-23T09:32:36;4.17;;;3.77;;
6997;SDS011;3539;47.982;12.238;2023-03-23T09:35:04;4.23;;;3.00;;
6997;SDS011;3539;47.982;12.238;2023-03-23T09:37:33;7.20;;;3.80;;
6997;SDS011;3539;47.982;12.238;2023-03-23T09:40:00;4.53;;;3.17;;
6997;SDS011;3539;47.982;12.238;2023-03-23T09:42:36;3.87;;;3.20;;
6997;SDS011;3539;47.982;12.238;2023-03-23T09:45:12;3.40;;;3.10;;
6997;SDS011;3539;47.982;12.238;2023-03-23T09:47:46;3.80;;;3.40;;
6997;SDS011;3539;47.982;12.238;2023-03-23T09:50:20;4.10;;;3.07;;
6997;SDS011;3539;47.982;12.238;2023-03-23T09:52:58;4.73;;;3.50;;
6997;SDS011;3539;47.982;12.238;2023-03-23T09:55:27;4.33;;;3.37;;
6997;SDS011;3539;47.982;12.238;2023-03-23T09:57:57;4.50;;;3.40;;
6997;SDS011;3539;47.982;12.238;2023-03-23T10:00:29;5.73;;;3.37;;
6997;SDS011;3539;47.982;12.238;2023-03-23T10:02:59;3.87;;;3.33;;
6997;SDS011;3539;47.982;12.238;2023-03-23T10:05:30;4.27;;;3.43;;
6997;SDS011;3539;47.982;12.238;2023-03-23T10:07:59;4.20;;;3.40;;
6997;SDS011;3539;47.982;12.238;2023-03-23T10:10:31;4.80;;;3.63;;
6997;SDS011;3539;47.982;12.238;2023-03-23T10:13:06;4.50;;;3.50;;
6997;SDS011;3539;47.982;12.238;2023-03-23T10:15:38;4.33;;;3.70;;
6997;SDS011;3539;47.982;12.238;2023-03-23T10:18:08;6.87;;;3.43;;
6997;SDS011;3539;47.982;12.238;2023-03-23T10:20:42;8.10;;;3.30;;
6997;SDS011;3539;47.982;12.238;2023-03-23T10:23:13;6.17;;;3.67;;
6997;SDS011;3539;47.982;12.238;2023-03-23T10:25:50;4.33;;;3.30;;
6997;SDS011;3539;47.982;12.238;2023-03-23T10:28:20;4.87;;;3.20;;
6997;SDS011;3539;47.982;12.238;2023-03-23T10:30:52;5.13;;;3.27;;
6997;SDS011;3539;47.982;12.238;2023-03-23T10:33:24;4.57;;;3.40;;
6997;SDS011;3539;47.982;12.238;2023-03-23T10:35:53;5.93;;;3.30;;
6997;SDS011;3539;47.982;12.238;2023-03-23T10:38:26;6.40;;;3.50;;
6997;SDS011;3539;47.982;12.238;2023-03-23T10:40:59;7.07;;;3.43;;
6997;SDS011;3539;47.982;12.238;2023-03-23T10:43:29;4.40;;;3.60;;
6997;SDS011;3539;47.982;12.238;2023-03-23T10:46:00;6.90;;;3.70;;
6997;SDS011;3539;47.982;12.238;2023-03-23T10:48:29;4.07;;;3.10;;
6997;SDS011;3539;47.982;12.238;2023-03-23T10:50:58;5.27;;;3.23;;
6997;SDS011;3539;47.982;12.238;2023-03-23T10:53:28;4.87;;;3.30;;
6997;SDS011;3539;47.982;12.238;2023-03-23T10:55:58;4.27;;;3.80;;
6997;SDS011;3539;47.982;12.238;2023-03-23T10:58:26;4.90;;;3.20;;
6997;SDS011;3539;47.982;12.238;2023-03-23T11:00:56;5.93;;;3.50;;
6997;SDS011;3539;47.982;12.238;2023-03-23T11:03:25;4.77;;;3.33;;
6997;SDS011;3539;47.982;12.238;2023-03-23T11:05:58;5.87;;;3.50;;
6997;SDS011;3539;47.982;12.238;2023-03-23T11:08:26;3.90;;;3.50;;
6997;SDS011;3539;47.982;12.238;2023-03-23T11:10:56;6.30;;;3.70;;
6997;SDS011;3539;47.982;12.238;2023-03-23T11:13:27;5.30;;;3.63;;
6997;SDS011;3539;47.982;12.238;2023-03-23T11:15:57;4.00;;;3.33;;
6997;SDS011;3539;47.982;12.238;2023-03-23T11:18:26;3.80;;;3.50;;
6997;SDS011;3539;47.982;12.238;2023-03-23T11:20:54;4.30;;;3.63;;
6997;SDS011;3539;47.982;12.238;2023-03-23T11:23:23;6.13;;;3.70;;
6997;SDS011;3539;47.982;12.238;2023-03-23T11:25:56;4.23;;;3.83;;
6997;SDS011;3539;47.982;12.238;2023-03-23T11:28:27;6.60;;;4.37;;
6997;SDS011;3539;47.982;12.238;2023-03-23T11:30:58;6.23;;;4.40;;
6997;SDS011;3539;47.982;12.238;2023-03-23T11:33:28;6.07;;;3.93;;
6997;SDS011;3539;47.982;12.238;2023-03-23T11:35:56;4.60;;;4.10;;
6997;SDS011;3539;47.982;12.238;2023-03-23T11:38:23;5.73;;;4.40;;
6997;SDS011;3539;47.982;12.238;2023-03-23T11:40:52;6.30;;;4.30;;
6997;SDS011;3539;47.982;12.238;2023-03-23T11:43:20;7.63;;;4.43;;
6997;SDS011;3539;47.982;12.238;2023-03-23T11:45:49;6.60;;;4.17;;
6997;SDS011;3539;47.982;12.238;2023-03-23T11:48:24;8.77;;;5.17;;
6997;SDS011;3539;47.982;12.238;2023-03-23T11:50:54;5.17;;;4.20;;
6997;SDS011;3539;47.982;12.238;2023-03-23T11:53:27;5.00;;;4.50;;
6997;SDS011;3539;47.982;12.238;2023-03-23T11:56:01;6.47;;;4.73;;
6997;SDS011;3539;47.982;12.238;2023-03-23T11:58:33;4.40;;;4.00;;
6997;SDS011;3539;47.982;12.238;2023-03-23T12:01:02;4.97;;;4.20;;
6997;SDS011;3539;47.982;12.238;2023-03-23T12:03:47;4.67;;;4.10;;
6997;SDS011;3539;47.982;12.238;2023-03-23T12:06:23;5.00;;;4.50;;
6997;SDS011;3539;47.982;12.238;2023-03-23T12:08:59;5.17;;;4.63;;
6997;SDS011;3539;47.982;12.238;2023-03-23T12:11:35;6.37;;;4.60;;
6997;SDS011;3539;47.982;12.238;2023-03-23T12:14:13;5.07;;;4.07;;
6997;SDS011;3539;47.982;12.238;2023-03-23T12:16:55;6.07;;;4.57;;
6997;SDS011;3539;47.982;12.238;2023-03-23T12:19:31;5.87;;;4.80;;
6997;SDS011;3539;47.982;12.238;2023-03-23T12:22:05;8.90;;;4.60;;
6997;SDS011;3539;47.982;12.238;2023-03-23T12:24:40;5.20;;;4.10;;
6997;SDS011;3539;47.982;12.238;2023-03-23T12:27:14;5.37;;;4.70;;
6997;SDS011;3539;47.982;12.238;2023-03-23T12:29:57;5.33;;;4.83;;
6997;SDS011;3539;47.982;12.238;2023-03-23T12:32:35;5.67;;;5.10;;
6997;SDS011;3539;47.982;12.238;2023-03-23T12:35:17;9.07;;;4.97;;
6997;SDS011;3539;47.982;12.238;2023-03-23T12:37:55;6.83;;;4.80;;
6997;SDS011;3539;47.982;12.238;2023-03-23T12:40:45;10.07;;;4.77;;
6997;SDS011;3539;47.982;12.238;2023-03-23T12:43:19;7.50;;;5.17;;
6997;SDS011;3539;47.982;12.238;2023-03-23T12:45:55;5.73;;;4.67;;
6997;SDS011;3539;47.982;12.238;2023-03-23T12:48:31;5.40;;;4.90;;
6997;SDS011;3539;47.982;12.238;2023-03-23T12:51:14;7.27;;;4.77;;
6997;SDS011;3539;47.982;12.238;2023-03-23T12:53:47;5.33;;;4.83;;
6997;SDS011;3539;47.982;12.238;2023-03-23T12:56:20;7.23;;;5.13;;
6997;SDS011;3539;47.982;12.238;2023-03-23T12:58:53;8.30;;;5.27;;
6997;SDS011;3539;47.982;12.238;2023-03-23T13:01:25;7.60;;;5.37;;
6997;SDS011;3539;47.982;12.238;2023-03-23T13:03:56;7.10;;;5.10;;
6997;SDS011;3539;47.982;12.238;2023-03-23T13:06:29;6.93;;;5.00;;
6997;SDS011;3539;47.982;12.238;2023-03-23T13:08:58;7.53;;;5.33;;
6997;SDS011;3539;47.982;12.238;2023-03-23T13:11:30;6.50;;;5.10;;
6997;SDS011;3539;47.982;12.238;2023-03-23T13:14:00;6.27;;;4.60;;
6997;SDS011;3539;47.982;12.238;2023-03-23T13:16:35;6.80;;;5.40;;
6997;SDS011;3539;47.982;12.238;2023-03-23T13:19:07;6.07;;;4.53;;
6997;SDS011;3539;47.982;12.238;2023-03-23T13:21:43;6.07;;;4.47;;
6997;SDS011;3539;47.982;12.238;2023-03-23T13:24:12;7.10;;;5.07;;
6997;SDS011;3539;47.982;12.238;2023-03-23T13:26:42;6.73;;;4.73;;
6997;SDS011;3539;47.982;12.238;2023-03-23T13:29:12;6.27;;;4.60;;
6997;SDS011;3539;47.982;12.238;2023-03-23T13:31:40;8.90;;;4.90;;
6997;SDS011;3539;47.982;12.238;2023-03-23T13:34:11;7.03;;;4.47;;
6997;SDS011;3539;47.982;12.238;2023-03-23T13:36:44;6.93;;;4.83;;
6997;SDS011;3539;47.982;12.238;2023-03-23T13:39:20;11.20;;;5.37;;
6997;SDS011;3539;47.982;12.238;2023-03-23T13:42:02;5.70;;;4.40;;
6997;SDS011;3539;47.982;12.238;2023-03-23T13:44:57;8.10;;;4.37;;
6997;SDS011;3539;47.982;12.238;2023-03-23T13:47:36;5.90;;;4.00;;
6997;SDS011;3539;47.982;12.238;2023-03-23T13:50:09;5.53;;;3.73;;
6997;SDS011;3539;47.982;12.238;2023-03-23T13:52:46;4.73;;;4.10;;
6997;SDS011;3539;47.982;12.238;2023-03-23T13:55:29;5.93;;;4.40;;
6997;SDS011;3539;47.982;12.238;2023-03-23T13:58:11;4.93;;;3.90;;
6997;SDS011;3539;47.982;12.238;2023-03-23T14:00:47;6.10;;;4.03;;
6997;SDS011;3539;47.982;12.238;2023-03-23T14:03:17;5.47;;;3.93;;
6997;SDS011;3539;47.982;12.238;2023-03-23T14:05:47;4.17;;;3.70;;
6997;SDS011;3539;47.982;12.238;2023-03-23T14:08:22;5.80;;;4.23;;
6997;SDS011;3539;47.982;12.238;2023-03-23T14:10:51;5.70;;;4.00;;
6997;SDS011;3539;47.982;12.238;2023-03-23T14:13:22;6.97;;;3.90;;
6997;SDS011;3539;47.982;12.238;2023-03-23T14:15:54;6.10;;;4.07;;
6997;SDS011;3539;47.982;12.238;2023-03-23T14:18:24;4.73;;;3.40;;
6997;SDS011;3539;47.982;12.238;2023-03-23T14:20:55;4.13;;;2.47;;
6997;SDS011;3539;47.982;12.238;2023-03-23T14:23:24;3.10;;;2.57;;
6997;SDS011;3539;47.982;12.238;2023-03-23T14:25:55;3.70;;;2.47;;
6997;SDS011;3539;47.982;12.238;2023-03-23T14:28:30;3.13;;;2.40;;
6997;SDS011;3539;47.982;12.238;2023-03-23T14:30:58;6.43;;;2.40;;
6997;SDS011;3539;47.982;12.238;2023-03-23T14:33:25;3.30;;;2.37;;
6997;SDS011;3539;47.982;12.238;2023-03-23T14:35:52;3.80;;;2.10;;
6997;SDS011;3539;47.982;12.238;2023-03-23T14:38:20;3.30;;;2.57;;
6997;SDS011;3539;47.982;12.238;2023-03-23T14:40:51;7.17;;;2.40;;
6997;SDS011;3539;47.982;12.238;2023-03-23T14:43:18;2.53;;;2.33;;
6997;SDS011;3539;47.982;12.238;2023-03-23T14:45:47;3.50;;;2.50;;
6997;SDS011;3539;47.982;12.238;2023-03-23T14:48:17;2.93;;;2.37;;
6997;SDS011;3539;47.982;12.238;2023-03-23T14:50:48;3.33;;;2.50;;
6997;SDS011;3539;47.982;12.238;2023-03-23T14:53:18;4.60;;;2.67;;
6997;SDS011;3539;47.982;12.238;2023-03-23T14:55:47;3.80;;;2.17;;
6997;SDS011;3539;47.982;12.238;2023-03-23T14:58:17;3.17;;;2.70;;
6997;SDS011;3539;47.982;12.238;2023-03-23T15:00:46;2.90;;;1.90;;
6997;SDS011;3539;47.982;12.238;2023-03-23T15:03:16;4.40;;;2.40;;
6997;SDS011;3539;47.982;12.238;2023-03-23T15:05:44;3.43;;;2.10;;
6997;SDS011;3539;47.982;12.238;2023-03-23T15:08:13;3.00;;;2.00;;
6997;SDS011;3539;47.982;12.238;2023-03-23T15:10:41;2.33;;;2.03;;
6997;SDS011;3539;47.982;12.238;2023-03-23T15:13:10;3.90;;;2.00;;
6997;SDS011;3539;47.982;12.238;2023-03-23T15:15:39;3.77;;;2.00;;
6997;SDS011;3539;47.982;12.238;2023-03-23T15:18:16;1.97;;;1.70;;
6997;SDS011;3539;47.982;12.238;2023-03-23T15:20:51;2.97;;;1.70;;
6997;SDS011;3539;47.982;12.238;2023-03-23T15:23:22;2.53;;;1.90;;
6997;SDS011;3539;47.982;12.238;2023-03-23T15:25:53;2.20;;;1.57;;